sensor_id;sensor_type;location;lat;lon;timestamp;P1;durP1;ratioP1;P2;durP2;ratioP2
80732;SDS011;70130;44.534;18.678;2023-06-10T00:02:11;15.48;;;9.32;;
80732;SDS011;70130;44.534;18.678;2023-06-10T00:04:37;14.27;;;9.43;;
80732;SDS011;70130;44.534;18.678;2023-06-10T00:07:03;12.70;;;9.00;;
80732;SDS011;70130;44.534;18.678;2023-06-10T00:09:34;13.45;;;9.23;;
80732;SDS011;70130;44.534;18.678;2023-06-10T00:12:06;16.65;;;9.30;;
80732;SDS011;70130;44.534;18.678;2023-06-10T00:14:38;15.10;;;9.57;;
80732;SDS011;70130;44.534;18.678;2023-06-10T00:17:06;14.38;;;8.70;;
80732;SDS011;70130;44.534;18.678;2023-06-10T00:19:35;15.30;;;9.13;;
80732;SDS011;70130;44.534;18.678;2023-06-10T00:22:06;15.15;;;9.43;;
80732;SDS011;70130;44.534;18.678;2023-06-10T00:24:33;15.05;;;10.25;;
80732;SDS011;70130;44.534;18.678;2023-06-10T00:26:59;18.45;;;9.70;;
80732;SDS011;70130;44.534;18.678;2023-06-10T00:29:24;15.90;;;9.82;;
80732;SDS011;70130;44.534;18.678;2023-06-10T00:31:51;13.57;;;9.57;;
80732;SDS011;70130;44.534;18.678;2023-06-10T00:34:18;12.65;;;9.57;;
80732;SDS011;70130;44.534;18.678;2023-06-10T00:36:44;14.02;;;9.10;;
80732;SDS011;70130;44.534;18.678;2023-06-10T00:39:10;17.23;;;10.18;;
80732;SDS011;70130;44.534;18.678;2023-06-10T00:41:36;13.50;;;8.90;;
80732;SDS011;70130;44.534;18.678;2023-06-10T00:44:02;14.38;;;9.75;;
80732;SDS011;70130;44.534;18.678;2023-06-10T00:46:27;14.52;;;9.07;;
80732;SDS011;70130;44.534;18.678;2023-06-10T00:48:54;15.35;;;8.57;;
80732;SDS011;70130;44.534;18.678;2023-06-10T00:51:20;13.60;;;9.32;;
80732;SDS011;70130;44.534;18.678;2023-06-10T00:53:47;12.98;;;8.80;;
80732;SDS011;70130;44.534;18.678;2023-06-10T00:56:14;14.02;;;9.23;;
80732;SDS011;70130;44.534;18.678;2023-06-10T00:58:40;16.40;;;9.10;;
80732;SDS011;70130;44.534;18.678;2023-06-10T01:01:06;15.57;;;8.90;;
80732;SDS011;70130;44.534;18.678;2023-06-10T01:03:31;11.63;;;9.15;;
80732;SDS011;70130;44.534;18.678;2023-06-10T01:09:02;12.20;;;8.77;;
80732;SDS011;70130;44.534;18.678;2023-06-10T01:14:42;14.15;;;9.10;;
80732;SDS011;70130;44.534;18.678;2023-06-10T01:17:10;14.75;;;9.10;;
80732;SDS011;70130;44.534;18.678;2023-06-10T01:19:37;11.18;;;8.55;;
80732;SDS011;70130;44.534;18.678;2023-06-10T01:22:03;13.82;;;8.27;;
80732;SDS011;70130;44.534;18.678;2023-06-10T01:24:30;13.07;;;8.63;;
80732;SDS011;70130;44.534;18.678;2023-06-10T01:27:00;13.43;;;9.55;;
80732;SDS011;70130;44.534;18.678;2023-06-10T01:32:04;13.10;;;8.68;;
80732;SDS011;70130;44.534;18.678;2023-06-10T01:34:37;13.60;;;8.93;;
80732;SDS011;70130;44.534;18.678;2023-06-10T01:37:07;15.98;;;9.23;;
80732;SDS011;70130;44.534;18.678;2023-06-10T01:39:38;12.85;;;9.02;;
80732;SDS011;70130;44.534;18.678;2023-06-10T01:42:05;15.25;;;9.80;;
80732;SDS011;70130;44.534;18.678;2023-06-10T01:44:31;17.92;;;9.38;;
80732;SDS011;70130;44.534;18.678;2023-06-10T01:46:57;12.20;;;9.00;;
80732;SDS011;70130;44.534;18.678;2023-06-10T01:49:22;16.23;;;9.45;;
80732;SDS011;70130;44.534;18.678;2023-06-10T01:51:49;14.77;;;8.48;;
80732;SDS011;70130;44.534;18.678;2023-06-10T01:54:15;13.65;;;8.40;;
80732;SDS011;70130;44.534;18.678;2023-06-10T01:56:41;18.35;;;10.02;;
80732;SDS011;70130;44.534;18.678;2023-06-10T01:59:07;14.23;;;9.05;;
80732;SDS011;70130;44.534;18.678;2023-06-10T02:01:33;14.52;;;8.20;;
80732;SDS011;70130;44.534;18.678;2023-06-10T02:03:58;14.05;;;9.50;;
80732;SDS011;70130;44.534;18.678;2023-06-10T02:06:24;18.83;;;9.80;;
80732;SDS011;70130;44.534;18.678;2023-06-10T02:08:50;12.63;;;9.07;;
80732;SDS011;70130;44.534;18.678;2023-06-10T02:11:15;16.52;;;10.73;;
80732;SDS011;70130;44.534;18.678;2023-06-10T02:13:41;25.10;;;16.30;;
80732;SDS011;70130;44.534;18.678;2023-06-10T02:16:07;24.90;;;16.38;;
80732;SDS011;70130;44.534;18.678;2023-06-10T02:18:32;32.95;;;18.42;;
80732;SDS011;70130;44.534;18.678;2023-06-10T02:20:58;27.67;;;18.00;;
80732;SDS011;70130;44.534;18.678;2023-06-10T02:23:25;24.73;;;15.35;;
80732;SDS011;70130;44.534;18.678;2023-06-10T02:25:51;23.35;;;15.38;;
80732;SDS011;70130;44.534;18.678;2023-06-10T02:28:17;21.40;;;12.73;;
80732;SDS011;70130;44.534;18.678;2023-06-10T02:30:42;23.55;;;13.38;;
80732;SDS011;70130;44.534;18.678;2023-06-10T02:33:08;17.77;;;11.90;;
80732;SDS011;70130;44.534;18.678;2023-06-10T02:35:37;19.73;;;11.32;;
80732;SDS011;70130;44.534;18.678;2023-06-10T02:38:04;16.58;;;10.90;;
80732;SDS011;70130;44.534;18.678;2023-06-10T02:40:32;16.90;;;10.43;;
80732;SDS011;70130;44.534;18.678;2023-06-10T02:42:58;15.38;;;9.82;;
80732;SDS011;70130;44.534;18.678;2023-06-10T02:45:24;15.25;;;9.05;;
80732;SDS011;70130;44.534;18.678;2023-06-10T02:47:50;19.05;;;9.70;;
80732;SDS011;70130;44.534;18.678;2023-06-10T02:50:16;15.05;;;9.23;;
80732;SDS011;70130;44.534;18.678;2023-06-10T02:53:00;16.45;;;9.77;;
80732;SDS011;70130;44.534;18.678;2023-06-10T02:55:26;15.30;;;8.68;;
80732;SDS011;70130;44.534;18.678;2023-06-10T02:57:57;12.80;;;9.18;;
80732;SDS011;70130;44.534;18.678;2023-06-10T03:00:24;14.27;;;9.18;;
80732;SDS011;70130;44.534;18.678;2023-06-10T03:02:51;14.02;;;8.77;;
80732;SDS011;70130;44.534;18.678;2023-06-10T03:05:21;13.43;;;8.70;;
80732;SDS011;70130;44.534;18.678;2023-06-10T03:07:50;14.15;;;9.40;;
80732;SDS011;70130;44.534;18.678;2023-06-10T03:10:16;15.70;;;9.52;;
80732;SDS011;70130;44.534;18.678;2023-06-10T03:12:42;14.60;;;8.90;;
80732;SDS011;70130;44.534;18.678;2023-06-10T03:15:09;15.10;;;9.25;;
80732;SDS011;70130;44.534;18.678;2023-06-10T03:17:35;13.30;;;8.65;;
80732;SDS011;70130;44.534;18.678;2023-06-10T03:20:01;12.70;;;8.93;;
80732;SDS011;70130;44.534;18.678;2023-06-10T03:22:28;15.88;;;8.77;;
80732;SDS011;70130;44.534;18.678;2023-06-10T03:25:06;13.60;;;8.63;;
80732;SDS011;70130;44.534;18.678;2023-06-10T03:27:41;17.40;;;8.80;;
80732;SDS011;70130;44.534;18.678;2023-06-10T03:30:09;14.35;;;9.35;;
80732;SDS011;70130;44.534;18.678;2023-06-10T03:32:36;16.45;;;8.57;;
80732;SDS011;70130;44.534;18.678;2023-06-10T03:35:04;15.20;;;8.82;;
80732;SDS011;70130;44.534;18.678;2023-06-10T03:37:32;12.55;;;8.80;;
80732;SDS011;70130;44.534;18.678;2023-06-10T03:39:58;18.40;;;8.93;;
80732;SDS011;70130;44.534;18.678;2023-06-10T03:42:23;13.32;;;8.15;;
80732;SDS011;70130;44.534;18.678;2023-06-10T03:44:49;13.13;;;8.90;;
80732;SDS011;70130;44.534;18.678;2023-06-10T03:47:15;16.52;;;8.95;;
80732;SDS011;70130;44.534;18.678;2023-06-10T03:49:42;13.73;;;9.35;;
80732;SDS011;70130;44.534;18.678;2023-06-10T03:52:08;14.25;;;9.27;;
80732;SDS011;70130;44.534;18.678;2023-06-10T03:54:34;12.93;;;9.13;;
80732;SDS011;70130;44.534;18.678;2023-06-10T03:57:02;30.58;;;14.45;;
80732;SDS011;70130;44.534;18.678;2023-06-10T03:59:29;22.02;;;13.13;;
80732;SDS011;70130;44.534;18.678;2023-06-10T04:01:55;20.30;;;11.93;;
80732;SDS011;70130;44.534;18.678;2023-06-10T04:04:21;15.32;;;11.00;;
80732;SDS011;70130;44.534;18.678;2023-06-10T04:06:48;14.73;;;10.18;;
80732;SDS011;70130;44.534;18.678;2023-06-10T04:09:14;14.55;;;9.93;;
80732;SDS011;70130;44.534;18.678;2023-06-10T04:11:41;14.77;;;9.50;;
80732;SDS011;70130;44.534;18.678;2023-06-10T04:14:07;12.93;;;9.10;;
80732;SDS011;70130;44.534;18.678;2023-06-10T04:16:34;14.15;;;9.45;;
80732;SDS011;70130;44.534;18.678;2023-06-10T04:19:01;13.15;;;8.15;;
80732;SDS011;70130;44.534;18.678;2023-06-10T04:21:27;19.33;;;9.85;;
80732;SDS011;70130;44.534;18.678;2023-06-10T04:23:53;16.27;;;9.48;;
80732;SDS011;70130;44.534;18.678;2023-06-10T04:26:19;12.93;;;9.23;;
80732;SDS011;70130;44.534;18.678;2023-06-10T04:28:45;15.50;;;9.80;;
80732;SDS011;70130;44.534;18.678;2023-06-10T04:31:12;16.60;;;9.50;;
80732;SDS011;70130;44.534;18.678;2023-06-10T04:33:39;14.57;;;9.25;;
80732;SDS011;70130;44.534;18.678;2023-06-10T04:36:05;13.15;;;8.73;;
80732;SDS011;70130;44.534;18.678;2023-06-10T04:38:32;15.52;;;10.25;;
80732;SDS011;70130;44.534;18.678;2023-06-10T04:40:59;15.55;;;9.90;;
80732;SDS011;70130;44.534;18.678;2023-06-10T04:43:26;15.77;;;9.63;;
80732;SDS011;70130;44.534;18.678;2023-06-10T04:45:55;14.02;;;9.05;;
80732;SDS011;70130;44.534;18.678;2023-06-10T04:48:21;13.82;;;8.70;;
80732;SDS011;70130;44.534;18.678;2023-06-10T04:50:49;12.30;;;8.43;;
80732;SDS011;70130;44.534;18.678;2023-06-10T04:53:15;11.88;;;8.35;;
80732;SDS011;70130;44.534;18.678;2023-06-10T04:55:44;15.82;;;8.73;;
80732;SDS011;70130;44.534;18.678;2023-06-10T04:58:11;12.82;;;7.70;;
80732;SDS011;70130;44.534;18.678;2023-06-10T05:00:37;16.27;;;9.57;;
80732;SDS011;70130;44.534;18.678;2023-06-10T05:03:02;15.43;;;9.25;;
80732;SDS011;70130;44.534;18.678;2023-06-10T05:05:28;13.25;;;8.77;;
80732;SDS011;70130;44.534;18.678;2023-06-10T05:07:53;15.32;;;9.25;;
80732;SDS011;70130;44.534;18.678;2023-06-10T05:10:19;18.00;;;9.00;;
80732;SDS011;70130;44.534;18.678;2023-06-10T05:12:45;13.82;;;8.63;;
80732;SDS011;70130;44.534;18.678;2023-06-10T05:15:10;16.27;;;9.52;;
80732;SDS011;70130;44.534;18.678;2023-06-10T05:17:36;17.08;;;10.20;;
80732;SDS011;70130;44.534;18.678;2023-06-10T05:20:03;19.13;;;9.60;;
80732;SDS011;70130;44.534;18.678;2023-06-10T05:22:29;15.63;;;10.90;;
80732;SDS011;70130;44.534;18.678;2023-06-10T05:24:54;15.52;;;9.18;;
80732;SDS011;70130;44.534;18.678;2023-06-10T05:27:20;16.73;;;10.10;;
80732;SDS011;70130;44.534;18.678;2023-06-10T05:29:47;14.00;;;9.23;;
80732;SDS011;70130;44.534;18.678;2023-06-10T05:32:13;15.45;;;10.02;;
80732;SDS011;70130;44.534;18.678;2023-06-10T05:34:38;18.80;;;11.55;;
80732;SDS011;70130;44.534;18.678;2023-06-10T05:37:04;16.55;;;10.65;;
80732;SDS011;70130;44.534;18.678;2023-06-10T05:39:30;19.23;;;10.25;;
80732;SDS011;70130;44.534;18.678;2023-06-10T05:41:56;18.33;;;9.73;;
80732;SDS011;70130;44.534;18.678;2023-06-10T05:44:24;14.93;;;10.38;;
80732;SDS011;70130;44.534;18.678;2023-06-10T05:46:50;15.70;;;10.60;;
80732;SDS011;70130;44.534;18.678;2023-06-10T05:49:16;16.50;;;11.80;;
80732;SDS011;70130;44.534;18.678;2023-06-10T05:51:41;16.60;;;10.77;;
80732;SDS011;70130;44.534;18.678;2023-06-10T05:54:07;15.00;;;9.55;;
80732;SDS011;70130;44.534;18.678;2023-06-10T05:56:33;17.30;;;10.60;;
80732;SDS011;70130;44.534;18.678;2023-06-10T05:58:58;17.40;;;11.10;;
80732;SDS011;70130;44.534;18.678;2023-06-10T06:01:24;17.60;;;11.27;;
80732;SDS011;70130;44.534;18.678;2023-06-10T06:03:50;17.25;;;11.02;;
80732;SDS011;70130;44.534;18.678;2023-06-10T06:06:15;18.25;;;10.80;;
80732;SDS011;70130;44.534;18.678;2023-06-10T06:08:41;20.20;;;12.00;;
80732;SDS011;70130;44.534;18.678;2023-06-10T06:11:07;16.42;;;10.60;;
80732;SDS011;70130;44.534;18.678;2023-06-10T06:13:32;21.48;;;12.10;;
80732;SDS011;70130;44.534;18.678;2023-06-10T06:15:58;21.20;;;13.38;;
80732;SDS011;70130;44.534;18.678;2023-06-10T06:18:24;21.63;;;11.98;;
80732;SDS011;70130;44.534;18.678;2023-06-10T06:20:49;15.65;;;10.60;;
80732;SDS011;70130;44.534;18.678;2023-06-10T06:23:15;17.35;;;11.25;;
80732;SDS011;70130;44.534;18.678;2023-06-10T06:25:41;20.00;;;11.57;;
80732;SDS011;70130;44.534;18.678;2023-06-10T06:28:07;18.10;;;10.85;;
80732;SDS011;70130;44.534;18.678;2023-06-10T06:30:34;16.08;;;11.02;;
80732;SDS011;70130;44.534;18.678;2023-06-10T06:33:01;16.63;;;11.00;;
80732;SDS011;70130;44.534;18.678;2023-06-10T06:35:27;17.67;;;11.48;;
80732;SDS011;70130;44.534;18.678;2023-06-10T06:37:52;21.75;;;11.80;;
80732;SDS011;70130;44.534;18.678;2023-06-10T06:40:24;21.60;;;10.70;;
80732;SDS011;70130;44.534;18.678;2023-06-10T06:42:50;18.35;;;12.10;;
80732;SDS011;70130;44.534;18.678;2023-06-10T06:45:35;14.38;;;10.32;;
80732;SDS011;70130;44.534;18.678;2023-06-10T06:48:01;15.68;;;10.32;;
80732;SDS011;70130;44.534;18.678;2023-06-10T06:50:27;17.15;;;10.30;;
80732;SDS011;70130;44.534;18.678;2023-06-10T06:52:53;15.63;;;10.25;;
80732;SDS011;70130;44.534;18.678;2023-06-10T06:55:18;14.77;;;9.63;;
80732;SDS011;70130;44.534;18.678;2023-06-10T06:57:44;12.57;;;8.95;;
80732;SDS011;70130;44.534;18.678;2023-06-10T07:00:11;16.90;;;10.10;;
80732;SDS011;70130;44.534;18.678;2023-06-10T07:02:37;11.50;;;8.38;;
80732;SDS011;70130;44.534;18.678;2023-06-10T07:05:03;11.55;;;7.93;;
80732;SDS011;70130;44.534;18.678;2023-06-10T07:07:28;14.55;;;9.00;;
80732;SDS011;70130;44.534;18.678;2023-06-10T07:09:54;13.82;;;8.93;;
80732;SDS011;70130;44.534;18.678;2023-06-10T07:12:20;13.27;;;9.52;;
80732;SDS011;70130;44.534;18.678;2023-06-10T07:14:49;12.65;;;8.80;;
80732;SDS011;70130;44.534;18.678;2023-06-10T07:17:16;12.23;;;7.82;;
80732;SDS011;70130;44.534;18.678;2023-06-10T07:19:43;10.55;;;8.35;;
80732;SDS011;70130;44.534;18.678;2023-06-10T07:22:09;12.27;;;8.68;;
80732;SDS011;70130;44.534;18.678;2023-06-10T07:24:35;12.88;;;8.30;;
80732;SDS011;70130;44.534;18.678;2023-06-10T07:27:01;9.95;;;8.40;;
80732;SDS011;70130;44.534;18.678;2023-06-10T07:29:26;11.57;;;9.23;;
80732;SDS011;70130;44.534;18.678;2023-06-10T07:31:52;11.77;;;9.23;;
80732;SDS011;70130;44.534;18.678;2023-06-10T07:34:18;12.32;;;8.65;;
80732;SDS011;70130;44.534;18.678;2023-06-10T07:36:44;12.50;;;8.52;;
80732;SDS011;70130;44.534;18.678;2023-06-10T07:39:10;11.73;;;8.18;;
80732;SDS011;70130;44.534;18.678;2023-06-10T07:41:35;12.10;;;7.93;;
80732;SDS011;70130;44.534;18.678;2023-06-10T07:44:01;11.32;;;8.30;;
80732;SDS011;70130;44.534;18.678;2023-06-10T07:46:28;13.55;;;8.52;;
80732;SDS011;70130;44.534;18.678;2023-06-10T07:48:54;13.13;;;7.88;;
80732;SDS011;70130;44.534;18.678;2023-06-10T07:51:20;11.85;;;9.23;;
80732;SDS011;70130;44.534;18.678;2023-06-10T07:53:46;10.82;;;7.25;;
80732;SDS011;70130;44.534;18.678;2023-06-10T07:56:12;9.88;;;7.93;;
80732;SDS011;70130;44.534;18.678;2023-06-10T07:58:38;10.90;;;7.72;;
80732;SDS011;70130;44.534;18.678;2023-06-10T08:01:03;15.77;;;9.90;;
80732;SDS011;70130;44.534;18.678;2023-06-10T08:03:29;13.23;;;8.23;;
80732;SDS011;70130;44.534;18.678;2023-06-10T08:05:55;15.38;;;9.15;;
80732;SDS011;70130;44.534;18.678;2023-06-10T08:08:20;15.27;;;9.20;;
80732;SDS011;70130;44.534;18.678;2023-06-10T08:10:46;13.40;;;8.90;;
80732;SDS011;70130;44.534;18.678;2023-06-10T08:13:12;13.80;;;9.05;;
80732;SDS011;70130;44.534;18.678;2023-06-10T08:15:37;12.60;;;8.43;;
80732;SDS011;70130;44.534;18.678;2023-06-10T08:18:04;15.88;;;9.60;;
80732;SDS011;70130;44.534;18.678;2023-06-10T08:20:30;14.27;;;9.98;;
80732;SDS011;70130;44.534;18.678;2023-06-10T08:22:55;15.95;;;9.55;;
80732;SDS011;70130;44.534;18.678;2023-06-10T08:25:21;14.75;;;9.90;;
80732;SDS011;70130;44.534;18.678;2023-06-10T08:27:47;14.05;;;9.80;;
80732;SDS011;70130;44.534;18.678;2023-06-10T08:30:13;15.85;;;9.25;;
80732;SDS011;70130;44.534;18.678;2023-06-10T08:32:39;13.30;;;9.23;;
80732;SDS011;70130;44.534;18.678;2023-06-10T08:35:05;14.73;;;9.55;;
80732;SDS011;70130;44.534;18.678;2023-06-10T08:37:31;13.65;;;8.82;;
80732;SDS011;70130;44.534;18.678;2023-06-10T08:39:56;12.88;;;9.02;;
80732;SDS011;70130;44.534;18.678;2023-06-10T08:44:53;15.75;;;10.07;;
80732;SDS011;70130;44.534;18.678;2023-06-10T08:47:22;12.13;;;8.70;;
80732;SDS011;70130;44.534;18.678;2023-06-10T08:49:48;13.43;;;10.15;;
80732;SDS011;70130;44.534;18.678;2023-06-10T08:52:18;14.68;;;9.63;;
80732;SDS011;70130;44.534;18.678;2023-06-10T08:54:49;13.57;;;9.88;;
80732;SDS011;70130;44.534;18.678;2023-06-10T08:57:19;12.10;;;9.23;;
80732;SDS011;70130;44.534;18.678;2023-06-10T08:59:47;12.75;;;9.73;;
80732;SDS011;70130;44.534;18.678;2023-06-10T09:02:14;15.27;;;10.05;;
80732;SDS011;70130;44.534;18.678;2023-06-10T09:04:43;15.27;;;9.57;;
80732;SDS011;70130;44.534;18.678;2023-06-10T09:09:37;15.63;;;9.20;;
80732;SDS011;70130;44.534;18.678;2023-06-10T09:12:03;14.02;;;9.80;;
80732;SDS011;70130;44.534;18.678;2023-06-10T09:14:29;12.02;;;8.77;;
80732;SDS011;70130;44.534;18.678;2023-06-10T09:16:55;11.43;;;8.00;;
80732;SDS011;70130;44.534;18.678;2023-06-10T09:19:25;10.93;;;8.23;;
80732;SDS011;70130;44.534;18.678;2023-06-10T09:21:53;10.90;;;8.93;;
80732;SDS011;70130;44.534;18.678;2023-06-10T09:24:20;13.20;;;10.30;;
80732;SDS011;70130;44.534;18.678;2023-06-10T09:26:50;11.50;;;8.40;;
80732;SDS011;70130;44.534;18.678;2023-06-10T09:29:16;12.93;;;8.93;;
80732;SDS011;70130;44.534;18.678;2023-06-10T09:31:42;12.38;;;9.02;;
80732;SDS011;70130;44.534;18.678;2023-06-10T09:34:09;10.15;;;9.00;;
80732;SDS011;70130;44.534;18.678;2023-06-10T09:36:37;11.82;;;8.00;;
80732;SDS011;70130;44.534;18.678;2023-06-10T09:39:04;10.82;;;7.80;;
80732;SDS011;70130;44.534;18.678;2023-06-10T09:41:39;8.90;;;6.70;;
80732;SDS011;70130;44.534;18.678;2023-06-10T09:44:12;8.80;;;7.45;;
80732;SDS011;70130;44.534;18.678;2023-06-10T09:46:41;10.02;;;8.10;;
80732;SDS011;70130;44.534;18.678;2023-06-10T09:49:10;10.80;;;7.95;;
80732;SDS011;70130;44.534;18.678;2023-06-10T09:51:36;10.52;;;7.78;;
80732;SDS011;70130;44.534;18.678;2023-06-10T09:54:02;11.18;;;7.55;;
80732;SDS011;70130;44.534;18.678;2023-06-10T09:56:37;12.57;;;9.82;;
80732;SDS011;70130;44.534;18.678;2023-06-10T09:59:06;12.10;;;8.95;;
80732;SDS011;70130;44.534;18.678;2023-06-10T10:01:31;11.38;;;8.68;;
80732;SDS011;70130;44.534;18.678;2023-06-10T10:03:58;11.68;;;9.35;;
80732;SDS011;70130;44.534;18.678;2023-06-10T10:06:25;15.25;;;10.32;;
80732;SDS011;70130;44.534;18.678;2023-06-10T10:08:51;11.40;;;7.90;;
80732;SDS011;70130;44.534;18.678;2023-06-10T10:11:18;13.68;;;8.52;;
80732;SDS011;70130;44.534;18.678;2023-06-10T10:13:47;11.32;;;8.77;;
80732;SDS011;70130;44.534;18.678;2023-06-10T10:16:17;10.93;;;9.27;;
80732;SDS011;70130;44.534;18.678;2023-06-10T10:18:49;9.93;;;8.52;;
80732;SDS011;70130;44.534;18.678;2023-06-10T10:21:20;11.77;;;8.30;;
80732;SDS011;70130;44.534;18.678;2023-06-10T10:24:18;9.15;;;7.40;;
80732;SDS011;70130;44.534;18.678;2023-06-10T10:26:46;9.85;;;6.82;;
80732;SDS011;70130;44.534;18.678;2023-06-10T10:29:24;9.23;;;6.93;;
80732;SDS011;70130;44.534;18.678;2023-06-10T10:31:56;7.65;;;6.90;;
80732;SDS011;70130;44.534;18.678;2023-06-10T10:35:08;7.68;;;6.70;;
80732;SDS011;70130;44.534;18.678;2023-06-10T10:37:32;9.48;;;6.65;;
80732;SDS011;70130;44.534;18.678;2023-06-10T10:39:59;7.35;;;6.60;;
80732;SDS011;70130;44.534;18.678;2023-06-10T10:42:25;8.02;;;6.65;;
80732;SDS011;70130;44.534;18.678;2023-06-10T10:44:52;10.00;;;7.43;;
80732;SDS011;70130;44.534;18.678;2023-06-10T10:47:19;7.93;;;6.72;;
80732;SDS011;70130;44.534;18.678;2023-06-10T10:49:48;7.05;;;6.05;;
80732;SDS011;70130;44.534;18.678;2023-06-10T10:52:18;10.07;;;7.53;;
80732;SDS011;70130;44.534;18.678;2023-06-10T10:54:44;9.85;;;7.55;;
80732;SDS011;70130;44.534;18.678;2023-06-10T11:05:06;6.40;;;5.15;;
80732;SDS011;70130;44.534;18.678;2023-06-10T11:07:33;7.20;;;5.18;;
80732;SDS011;70130;44.534;18.678;2023-06-10T11:10:05;7.85;;;4.50;;
80732;SDS011;70130;44.534;18.678;2023-06-10T11:12:49;8.98;;;5.18;;
80732;SDS011;70130;44.534;18.678;2023-06-10T11:15:22;8.40;;;5.95;;
80732;SDS011;70130;44.534;18.678;2023-06-10T11:26:08;13.07;;;6.78;;
80732;SDS011;70130;44.534;18.678;2023-06-10T11:28:34;9.25;;;7.38;;
80732;SDS011;70130;44.534;18.678;2023-06-10T11:31:00;11.18;;;8.05;;
80732;SDS011;70130;44.534;18.678;2023-06-10T11:33:25;15.63;;;9.57;;
80732;SDS011;70130;44.534;18.678;2023-06-10T11:35:51;14.65;;;9.57;;
80732;SDS011;70130;44.534;18.678;2023-06-10T11:38:17;13.93;;;8.55;;
80732;SDS011;70130;44.534;18.678;2023-06-10T11:40:50;11.88;;;7.68;;
80732;SDS011;70130;44.534;18.678;2023-06-10T11:43:17;13.35;;;8.63;;
80732;SDS011;70130;44.534;18.678;2023-06-10T11:45:43;11.15;;;8.50;;
80732;SDS011;70130;44.534;18.678;2023-06-10T11:48:09;12.18;;;8.20;;
80732;SDS011;70130;44.534;18.678;2023-06-10T11:50:36;12.23;;;7.32;;
80732;SDS011;70130;44.534;18.678;2023-06-10T11:53:02;9.75;;;7.93;;
80732;SDS011;70130;44.534;18.678;2023-06-10T11:55:45;12.60;;;9.02;;
80732;SDS011;70130;44.534;18.678;2023-06-10T11:58:21;11.65;;;7.40;;
80732;SDS011;70130;44.534;18.678;2023-06-10T12:00:51;11.32;;;8.27;;
80732;SDS011;70130;44.534;18.678;2023-06-10T12:03:19;9.57;;;7.93;;
80732;SDS011;70130;44.534;18.678;2023-06-10T12:06:03;10.48;;;7.90;;
80732;SDS011;70130;44.534;18.678;2023-06-10T12:08:32;11.73;;;7.60;;
80732;SDS011;70130;44.534;18.678;2023-06-10T12:10:59;9.80;;;8.48;;
80732;SDS011;70130;44.534;18.678;2023-06-10T12:13:28;14.73;;;7.85;;
80732;SDS011;70130;44.534;18.678;2023-06-10T12:15:54;11.63;;;8.13;;
80732;SDS011;70130;44.534;18.678;2023-06-10T12:18:21;8.32;;;6.43;;
80732;SDS011;70130;44.534;18.678;2023-06-10T12:20:47;6.78;;;5.72;;
80732;SDS011;70130;44.534;18.678;2023-06-10T12:23:15;9.20;;;6.10;;
80732;SDS011;70130;44.534;18.678;2023-06-10T12:25:54;6.75;;;5.50;;
80732;SDS011;70130;44.534;18.678;2023-06-10T12:28:21;8.27;;;5.47;;
80732;SDS011;70130;44.534;18.678;2023-06-10T12:30:50;8.82;;;5.35;;
80732;SDS011;70130;44.534;18.678;2023-06-10T12:33:20;9.57;;;6.03;;
80732;SDS011;70130;44.534;18.678;2023-06-10T12:35:47;7.93;;;5.80;;
80732;SDS011;70130;44.534;18.678;2023-06-10T12:38:26;8.95;;;6.80;;
80732;SDS011;70130;44.534;18.678;2023-06-10T12:41:00;7.20;;;5.78;;
80732;SDS011;70130;44.534;18.678;2023-06-10T12:43:27;6.72;;;5.10;;
80732;SDS011;70130;44.534;18.678;2023-06-10T12:45:53;5.90;;;5.30;;
80732;SDS011;70130;44.534;18.678;2023-06-10T12:48:20;5.68;;;4.72;;
80732;SDS011;70130;44.534;18.678;2023-06-10T12:50:54;5.97;;;4.60;;
80732;SDS011;70130;44.534;18.678;2023-06-10T12:53:21;5.97;;;5.38;;
80732;SDS011;70130;44.534;18.678;2023-06-10T12:55:48;8.65;;;5.30;;
80732;SDS011;70130;44.534;18.678;2023-06-10T12:58:14;6.05;;;4.57;;
80732;SDS011;70130;44.534;18.678;2023-06-10T13:00:40;5.18;;;4.68;;
80732;SDS011;70130;44.534;18.678;2023-06-10T13:03:07;9.10;;;4.40;;
80732;SDS011;70130;44.534;18.678;2023-06-10T13:05:34;5.18;;;3.97;;
80732;SDS011;70130;44.534;18.678;2023-06-10T13:08:04;5.80;;;4.30;;
80732;SDS011;70130;44.534;18.678;2023-06-10T13:10:30;5.03;;;4.20;;
80732;SDS011;70130;44.534;18.678;2023-06-10T13:12:56;6.65;;;4.38;;
80732;SDS011;70130;44.534;18.678;2023-06-10T13:15:22;4.78;;;4.00;;
80732;SDS011;70130;44.534;18.678;2023-06-10T13:17:48;6.25;;;4.88;;
80732;SDS011;70130;44.534;18.678;2023-06-10T13:20:15;5.10;;;4.63;;
80732;SDS011;70130;44.534;18.678;2023-06-10T13:22:42;7.10;;;5.60;;
80732;SDS011;70130;44.534;18.678;2023-06-10T13:25:08;6.18;;;5.35;;
80732;SDS011;70130;44.534;18.678;2023-06-10T13:27:36;6.07;;;5.07;;
80732;SDS011;70130;44.534;18.678;2023-06-10T13:30:05;6.65;;;5.60;;
80732;SDS011;70130;44.534;18.678;2023-06-10T13:32:32;20.35;;;14.05;;
80732;SDS011;70130;44.534;18.678;2023-06-10T13:34:57;10.48;;;7.72;;
80732;SDS011;70130;44.534;18.678;2023-06-10T13:37:23;9.43;;;7.53;;
80732;SDS011;70130;44.534;18.678;2023-06-10T13:39:49;7.22;;;5.07;;
80732;SDS011;70130;44.534;18.678;2023-06-10T13:42:16;7.25;;;4.90;;
80732;SDS011;70130;44.534;18.678;2023-06-10T13:44:43;7.07;;;5.05;;
80732;SDS011;70130;44.534;18.678;2023-06-10T13:47:08;11.10;;;5.53;;
80732;SDS011;70130;44.534;18.678;2023-06-10T13:49:34;8.40;;;6.00;;
80732;SDS011;70130;44.534;18.678;2023-06-10T13:52:00;8.00;;;5.78;;
80732;SDS011;70130;44.534;18.678;2023-06-10T13:54:26;5.20;;;4.63;;
80732;SDS011;70130;44.534;18.678;2023-06-10T13:56:52;6.95;;;5.50;;
80732;SDS011;70130;44.534;18.678;2023-06-10T13:59:18;5.47;;;4.22;;
80732;SDS011;70130;44.534;18.678;2023-06-10T14:01:45;5.65;;;4.82;;
80732;SDS011;70130;44.534;18.678;2023-06-10T14:04:11;7.50;;;5.55;;
80732;SDS011;70130;44.534;18.678;2023-06-10T14:06:36;5.95;;;5.30;;
80732;SDS011;70130;44.534;18.678;2023-06-10T14:09:02;8.25;;;5.82;;
80732;SDS011;70130;44.534;18.678;2023-06-10T14:11:28;6.13;;;5.53;;
80732;SDS011;70130;44.534;18.678;2023-06-10T14:13:53;7.20;;;5.80;;
80732;SDS011;70130;44.534;18.678;2023-06-10T14:16:21;8.18;;;5.50;;
80732;SDS011;70130;44.534;18.678;2023-06-10T14:18:47;6.03;;;5.43;;
80732;SDS011;70130;44.534;18.678;2023-06-10T14:21:13;5.90;;;5.32;;
80732;SDS011;70130;44.534;18.678;2023-06-10T14:23:38;5.22;;;4.75;;
80732;SDS011;70130;44.534;18.678;2023-06-10T14:26:04;5.35;;;4.85;;
80732;SDS011;70130;44.534;18.678;2023-06-10T14:28:32;5.90;;;4.53;;
80732;SDS011;70130;44.534;18.678;2023-06-10T14:30:57;7.90;;;6.05;;
80732;SDS011;70130;44.534;18.678;2023-06-10T14:33:23;5.70;;;5.05;;
80732;SDS011;70130;44.534;18.678;2023-06-10T14:35:49;6.68;;;5.10;;
80732;SDS011;70130;44.534;18.678;2023-06-10T14:38:14;7.22;;;4.93;;
80732;SDS011;70130;44.534;18.678;2023-06-10T14:40:40;5.32;;;4.78;;
80732;SDS011;70130;44.534;18.678;2023-06-10T14:43:06;6.63;;;5.13;;
80732;SDS011;70130;44.534;18.678;2023-06-10T14:45:35;5.90;;;5.30;;
80732;SDS011;70130;44.534;18.678;2023-06-10T14:48:02;8.35;;;5.35;;
80732;SDS011;70130;44.534;18.678;2023-06-10T14:50:29;8.02;;;4.97;;
80732;SDS011;70130;44.534;18.678;2023-06-10T14:52:55;6.45;;;5.72;;
80732;SDS011;70130;44.534;18.678;2023-06-10T14:55:20;6.00;;;5.07;;